createdAt,value
2022-12-15T00:02:20.425Z,33.03
2022-12-15T00:05:06.835Z,37.00
2022-12-15T00:07:53.703Z,32.23
2022-12-15T00:10:39.248Z,32.23
2022-12-15T00:13:30.815Z,29.97
2022-12-15T00:16:16.357Z,35.10
2022-12-15T00:19:01.878Z,35.13
2022-12-15T00:21:47.863Z,32.83
2022-12-15T00:24:33.752Z,32.67
2022-12-15T00:27:19.335Z,30.33
2022-12-15T00:30:04.569Z,33.57
2022-12-15T00:32:51.409Z,30.20
2022-12-15T00:35:36.995Z,31.37
2022-12-15T00:38:33.074Z,26.60
2022-12-15T00:41:01.644Z,28.10
2022-12-15T00:43:31.325Z,29.10
2022-12-15T00:46:17.731Z,28.60
2022-12-15T00:48:45.351Z,31.50
2022-12-15T00:51:12.465Z,31.27
2022-12-15T00:53:58.621Z,30.57
2022-12-15T00:56:44.209Z,31.40
2022-12-15T00:59:31.125Z,31.30
2022-12-15T01:02:16.717Z,30.67
2022-12-15T01:05:02.039Z,31.67
2022-12-15T01:07:49.744Z,31.93
2022-12-15T01:10:36.848Z,30.40
2022-12-15T01:13:24.028Z,32.47
2022-12-15T01:16:10.017Z,34.53
2022-12-15T01:18:55.481Z,34.90
2022-12-15T01:21:25.069Z,31.47
2022-12-15T01:23:52.667Z,30.00
2022-12-15T01:26:19.467Z,35.77
2022-12-15T01:28:46.186Z,34.07
2022-12-15T01:31:13.647Z,35.30
2022-12-15T01:33:42.562Z,29.53
2022-12-15T01:36:10.460Z,36.57
2022-12-15T01:38:37.356Z,33.40
2022-12-15T01:41:10.058Z,32.47
2022-12-15T01:43:39.695Z,29.50
2022-12-15T01:46:17.671Z,31.67
2022-12-15T01:48:54.466Z,34.00
2022-12-15T01:51:31.795Z,34.00
2022-12-15T01:54:20.878Z,35.90
2022-12-15T01:56:54.903Z,33.63
2022-12-15T01:59:35.472Z,32.20
2022-12-15T02:02:03.728Z,35.23
2022-12-15T02:04:33.495Z,31.13
2022-12-15T02:07:00.395Z,32.10
2022-12-15T02:09:28.467Z,33.83
2022-12-15T02:12:19.335Z,37.27
2022-12-15T02:15:10.884Z,30.37
2022-12-15T02:18:03.303Z,30.43
2022-12-15T02:20:48.748Z,31.17
2022-12-15T02:23:34.873Z,30.63
2022-12-15T02:26:07.572Z,30.07
2022-12-15T02:29:06.694Z,31.17
2022-12-15T02:31:57.009Z,34.20
2022-12-15T02:34:30.007Z,36.83
2022-12-15T02:37:11.492Z,29.17
2022-12-15T02:39:38.244Z,33.33
2022-12-15T02:42:05.026Z,29.73
2022-12-15T02:44:43.354Z,27.83
2022-12-15T02:47:33.935Z,28.23
2022-12-15T02:50:03.580Z,25.83
2022-12-15T02:53:07.050Z,30.90
2022-12-15T02:56:13.809Z,29.50
2022-12-15T02:59:15.237Z,32.27
2022-12-15T03:01:42.003Z,29.63
2022-12-15T03:04:11.647Z,30.20
2022-12-15T03:06:39.005Z,26.83
2022-12-15T03:09:05.864Z,29.47
2022-12-15T03:11:32.902Z,26.93
2022-12-15T03:13:59.719Z,23.33
2022-12-15T03:16:26.518Z,25.13
2022-12-15T03:18:53.321Z,28.47
2022-12-15T03:21:20.259Z,26.13
2022-12-15T03:23:47.011Z,26.37
2022-12-15T03:26:13.735Z,28.03
2022-12-15T03:28:40.479Z,30.17
2022-12-15T03:31:07.223Z,27.03
2022-12-15T03:33:34.899Z,25.23
2022-12-15T03:36:02.166Z,25.20
2022-12-15T03:38:28.970Z,25.57
2022-12-15T03:40:55.825Z,26.33
2022-12-15T03:43:22.818Z,28.47
2022-12-15T03:45:49.637Z,30.00
2022-12-15T03:48:16.656Z,27.97
2022-12-15T03:50:44.429Z,25.60
2022-12-15T03:53:11.148Z,27.80
2022-12-15T03:55:37.933Z,28.63
2022-12-15T03:58:04.686Z,24.43
2022-12-15T04:00:31.716Z,27.57
2022-12-15T04:02:58.816Z,24.07
2022-12-15T04:05:29.445Z,26.77
2022-12-15T04:07:58.541Z,27.33
2022-12-15T04:10:33.627Z,24.30
2022-12-15T04:13:11.746Z,33.37
2022-12-15T04:15:40.662Z,26.67
2022-12-15T04:18:10.812Z,30.43
2022-12-15T04:20:40.151Z,27.47
2022-12-15T04:23:10.017Z,28.47
2022-12-15T04:25:56.018Z,28.17
2022-12-15T04:28:42.242Z,25.60
2022-12-15T04:31:30.120Z,28.40
2022-12-15T04:34:21.892Z,24.90
2022-12-15T04:37:12.226Z,29.37
2022-12-15T04:40:03.692Z,25.10
2022-12-15T04:42:52.519Z,28.03
2022-12-15T04:45:42.877Z,25.47
2022-12-15T04:48:29.604Z,26.23
2022-12-15T04:51:14.810Z,25.67
2022-12-15T04:54:02.991Z,24.77
2022-12-15T04:56:50.063Z,23.23
2022-12-15T04:59:35.938Z,27.63
2022-12-15T05:02:21.195Z,26.93
2022-12-15T05:05:06.916Z,23.33
2022-12-15T05:07:52.126Z,22.27
2022-12-15T05:10:37.420Z,26.90
2022-12-15T05:13:24.962Z,21.70
2022-12-15T05:16:10.798Z,23.53
2022-12-15T05:18:56.495Z,18.73
2022-12-15T05:21:41.701Z,22.13
2022-12-15T05:24:27.026Z,21.03
2022-12-15T05:27:12.400Z,23.37
2022-12-15T05:29:57.872Z,19.30
2022-12-15T05:32:24.580Z,18.53
2022-12-15T05:34:51.276Z,22.83
2022-12-15T05:37:18.030Z,19.30
2022-12-15T05:39:44.728Z,17.93
2022-12-15T05:42:11.551Z,20.03
2022-12-15T05:44:38.293Z,19.20
2022-12-15T05:47:05.136Z,18.77
2022-12-15T05:49:31.909Z,17.27
2022-12-15T05:51:58.948Z,21.27
2022-12-15T05:54:25.643Z,21.97
2022-12-15T05:56:52.764Z,22.67
2022-12-15T05:59:19.962Z,22.70
2022-12-15T06:01:46.907Z,22.53
2022-12-15T06:04:14.536Z,22.33
2022-12-15T06:06:42.162Z,19.63
2022-12-15T06:09:09.577Z,22.50
2022-12-15T06:11:37.332Z,24.20
2022-12-15T06:14:04.528Z,21.87
2022-12-15T06:16:31.926Z,21.23
2022-12-15T06:19:01.835Z,21.23
2022-12-15T06:21:35.590Z,22.03
2022-12-15T06:24:07.242Z,21.80
2022-12-15T06:26:37.989Z,20.83
2022-12-15T06:29:08.552Z,20.93
2022-12-15T06:31:36.984Z,23.57
2022-12-15T06:34:07.116Z,23.83
2022-12-15T06:36:34.284Z,20.10
2022-12-15T06:39:04.250Z,27.53
2022-12-15T06:41:32.190Z,22.67
2022-12-15T06:44:00.071Z,24.40
2022-12-15T06:46:29.518Z,22.13
2022-12-15T06:48:57.280Z,23.17
2022-12-15T06:51:25.220Z,33.90
2022-12-15T06:53:55.474Z,29.83
2022-12-15T06:56:36.106Z,26.27
2022-12-15T06:59:05.702Z,26.73
2022-12-15T07:01:33.640Z,28.37
2022-12-15T07:04:02.561Z,24.77
2022-12-15T07:06:36.313Z,30.00
2022-12-15T07:09:07.078Z,28.83
2022-12-15T07:11:33.772Z,21.37
2022-12-15T07:14:00.525Z,22.07
2022-12-15T07:16:27.273Z,17.43
2022-12-15T07:18:54.018Z,22.47
2022-12-15T07:21:20.750Z,16.87
2022-12-15T07:23:56.748Z,16.80
2022-12-15T07:26:25.288Z,15.77
2022-12-15T07:28:53.404Z,17.33
2022-12-15T07:31:21.061Z,18.03
2022-12-15T07:33:48.383Z,20.33
2022-12-15T07:36:15.519Z,23.10
2022-12-15T07:38:42.542Z,19.03
2022-12-15T07:41:10.397Z,20.73
2022-12-15T07:43:37.989Z,19.33
2022-12-15T07:46:06.644Z,20.37
2022-12-15T07:48:33.614Z,18.13
2022-12-15T07:51:12.369Z,27.87
2022-12-15T07:53:42.405Z,22.73
2022-12-15T07:56:10.406Z,18.80
2022-12-15T07:58:38.708Z,18.03
2022-12-15T08:01:08.668Z,20.10
2022-12-15T08:03:37.137Z,21.53
2022-12-15T08:06:06.037Z,16.03
2022-12-15T08:08:34.581Z,14.10
2022-12-15T08:11:14.806Z,13.03
2022-12-15T08:16:30.847Z,16.80
2022-12-15T08:18:57.589Z,19.07
2022-12-15T08:21:24.785Z,16.83
2022-12-15T08:23:51.515Z,16.57
2022-12-15T08:26:21.479Z,20.03
2022-12-15T08:28:50.445Z,16.00
2022-12-15T08:31:21.060Z,18.97
2022-12-15T08:33:49.260Z,13.43
2022-12-15T08:36:19.181Z,13.53
2022-12-15T08:38:47.047Z,13.20
2022-12-15T08:41:22.895Z,14.33
2022-12-15T08:43:51.416Z,12.40
2022-12-15T08:46:24.126Z,13.87
2022-12-15T08:48:52.777Z,12.63
2022-12-15T08:51:21.515Z,13.00
2022-12-15T08:53:48.945Z,12.40
2022-12-15T08:56:20.114Z,11.73
2022-12-15T08:58:49.000Z,14.20
2022-12-15T09:01:23.414Z,10.67
2022-12-15T09:03:53.857Z,10.83
2022-12-15T09:06:31.115Z,15.20
2022-12-15T09:09:01.564Z,13.60
2022-12-15T09:11:30.163Z,14.17
2022-12-15T09:13:57.920Z,10.83
2022-12-15T09:16:25.513Z,11.73
2022-12-15T09:18:56.040Z,12.27
2022-12-15T09:21:26.711Z,10.23
2022-12-15T09:24:00.182Z,11.57
2022-12-15T09:26:28.900Z,12.80
2022-12-15T09:28:56.350Z,11.20
2022-12-15T09:31:30.671Z,11.07
2022-12-15T09:34:00.650Z,11.40
2022-12-15T09:36:28.358Z,12.23
2022-12-15T09:38:55.262Z,10.40
2022-12-15T09:41:29.384Z,12.73
2022-12-15T09:44:18.976Z,11.33
2022-12-15T09:47:23.340Z,15.57
2022-12-15T09:49:58.323Z,15.98
2022-12-15T09:52:49.151Z,14.33
2022-12-15T09:55:24.315Z,13.33
2022-12-15T09:58:00.664Z,11.73
2022-12-15T10:00:55.198Z,14.20
2022-12-15T10:03:59.827Z,11.73
2022-12-15T10:06:58.055Z,13.57
2022-12-15T10:09:28.429Z,19.10
2022-12-15T10:12:18.868Z,20.23
2022-12-15T10:15:00.923Z,13.23
2022-12-15T10:17:51.268Z,17.20
2022-12-15T10:20:24.858Z,12.60
2022-12-15T10:22:51.794Z,17.13
2022-12-15T10:25:29.662Z,16.10
2022-12-15T10:28:15.140Z,34.53
2022-12-15T10:30:51.277Z,20.93
2022-12-15T10:33:22.760Z,24.70
2022-12-15T10:35:52.939Z,21.30
2022-12-15T10:38:37.918Z,16.80
2022-12-15T10:41:34.082Z,19.50
2022-12-15T10:44:02.575Z,22.47
2022-12-15T10:46:31.832Z,19.40
2022-12-15T10:49:07.396Z,22.03
2022-12-15T10:51:45.244Z,14.93
2022-12-15T10:54:15.028Z,12.97
2022-12-15T10:56:58.147Z,13.27
2022-12-15T10:59:35.276Z,16.87
2022-12-15T11:02:24.009Z,17.10
2022-12-15T11:05:16.136Z,16.43
2022-12-15T11:07:54.802Z,24.77
2022-12-15T11:10:50.453Z,18.80
2022-12-15T11:13:21.165Z,15.70
2022-12-15T11:15:55.097Z,24.37
2022-12-15T11:18:29.282Z,17.87
2022-12-15T11:21:37.267Z,23.97
2022-12-15T11:24:26.941Z,15.80
2022-12-15T11:27:28.362Z,20.23
2022-12-15T11:29:59.206Z,19.90
2022-12-15T11:32:32.074Z,24.10
2022-12-15T11:35:00.240Z,23.70
2022-12-15T11:37:45.377Z,29.40
2022-12-15T11:40:41.640Z,25.53
2022-12-15T11:43:46.298Z,19.93
2022-12-15T11:46:24.678Z,19.80
2022-12-15T11:48:51.305Z,21.70
2022-12-15T11:51:40.775Z,26.57
2022-12-15T11:54:34.837Z,26.23
2022-12-15T11:57:29.253Z,22.70
2022-12-15T12:00:19.832Z,21.83
2022-12-15T12:02:58.636Z,16.17
2022-12-15T12:06:02.924Z,18.37
2022-12-15T12:08:52.043Z,18.03
2022-12-15T12:11:42.001Z,18.20
2022-12-15T12:14:45.510Z,22.80
2022-12-15T12:17:47.930Z,18.47
2022-12-15T12:20:33.670Z,22.03
2022-12-15T12:23:08.703Z,22.77
2022-12-15T12:25:47.682Z,17.97
2022-12-15T12:28:20.637Z,26.93
2022-12-15T12:30:48.726Z,15.53
2022-12-15T12:33:48.641Z,15.80
2022-12-15T12:36:16.480Z,18.87
2022-12-15T12:38:57.591Z,18.00
2022-12-15T12:41:37.191Z,18.23
2022-12-15T12:44:33.643Z,21.23
2022-12-15T12:47:17.236Z,22.93
2022-12-15T12:49:54.494Z,17.43
2022-12-15T12:52:35.621Z,33.57
2022-12-15T12:55:14.861Z,21.97
2022-12-15T12:57:43.901Z,23.50
2022-12-15T13:00:15.756Z,17.27
2022-12-15T13:03:12.373Z,18.67
2022-12-15T13:05:41.978Z,15.00
2022-12-15T13:08:08.748Z,22.87
2022-12-15T13:10:47.561Z,16.50
2022-12-15T13:13:30.191Z,17.67
2022-12-15T13:16:27.083Z,27.00
2022-12-15T13:19:06.880Z,16.83
2022-12-15T13:21:45.563Z,18.53
2022-12-15T13:24:37.407Z,18.03
2022-12-15T13:27:10.358Z,16.37
2022-12-15T13:30:09.263Z,19.63
2022-12-15T13:32:39.988Z,17.30
2022-12-15T13:35:12.407Z,20.83
2022-12-15T13:38:07.311Z,23.80
2022-12-15T13:40:37.878Z,25.93
2022-12-15T13:43:04.530Z,21.90
2022-12-15T13:45:37.552Z,22.97
2022-12-15T13:48:35.836Z,22.10
2022-12-15T13:51:30.118Z,23.93
2022-12-15T13:54:01.967Z,21.20
2022-12-15T13:56:56.556Z,22.17
2022-12-15T13:59:42.993Z,25.70
2022-12-15T14:02:32.188Z,22.47
2022-12-15T14:05:22.501Z,24.20
2022-12-15T14:07:59.229Z,21.60
2022-12-15T14:11:45.987Z,26.87
2022-12-15T14:14:00.527Z,23.17
2022-12-15T14:16:32.961Z,33.17
2022-12-15T14:19:12.790Z,27.33
2022-12-15T14:21:39.569Z,39.77
2022-12-15T14:27:25.899Z,27.47
2022-12-15T14:30:20.093Z,27.50
2022-12-15T14:33:12.707Z,29.23
2022-12-15T14:35:51.283Z,23.90
2022-12-15T14:38:34.658Z,27.87
2022-12-15T14:41:04.668Z,22.97
2022-12-15T14:43:38.968Z,31.40
2022-12-15T14:46:18.675Z,28.27
2022-12-15T14:49:01.034Z,26.47
2022-12-15T14:51:32.494Z,29.93
2022-12-15T14:53:59.259Z,28.40
2022-12-15T14:56:32.768Z,30.60
2022-12-15T14:59:17.033Z,25.47
2022-12-15T15:02:01.962Z,26.83
2022-12-15T15:03:14.311Z,25.37
2022-12-15T15:04:34.069Z,27.33
2022-12-15T15:07:05.934Z,31.70
2022-12-15T15:09:40.686Z,31.83
2022-12-15T15:12:15.991Z,36.23
2022-12-15T15:15:04.845Z,31.80
2022-12-15T15:17:45.564Z,30.30
2022-12-15T15:20:30.813Z,30.10
2022-12-15T15:23:18.362Z,32.47
2022-12-15T15:26:06.562Z,28.97
2022-12-15T15:28:43.157Z,36.03
2022-12-15T15:31:25.351Z,28.30
2022-12-15T15:33:54.541Z,33.03
2022-12-15T15:36:24.165Z,29.57
2022-12-15T15:38:52.099Z,33.03
2022-12-15T15:41:31.912Z,36.43
2022-12-15T15:44:01.659Z,33.20
2022-12-15T15:46:32.970Z,33.10
2022-12-15T15:49:06.622Z,30.30
2022-12-15T15:51:34.508Z,33.37
2022-12-15T15:54:10.484Z,28.63
2022-12-15T15:56:37.225Z,30.27
2022-12-15T15:59:13.617Z,30.50
2022-12-15T16:01:41.057Z,34.50
2022-12-15T16:04:08.123Z,35.53
2022-12-15T16:06:36.037Z,38.30
2022-12-15T16:09:05.111Z,28.70
2022-12-15T16:11:32.294Z,38.43
2022-12-15T16:13:59.168Z,34.63
2022-12-15T16:16:32.186Z,32.83
2022-12-15T16:18:59.086Z,34.17
2022-12-15T16:21:28.157Z,32.63
2022-12-15T16:23:56.950Z,36.67
2022-12-15T16:26:32.848Z,31.00
2022-12-15T16:29:00.133Z,34.00
2022-12-15T16:31:41.705Z,31.43
2022-12-15T16:34:09.203Z,33.33
2022-12-15T16:36:36.103Z,36.37
2022-12-15T16:39:03.957Z,35.87
2022-12-15T16:41:30.754Z,29.80
2022-12-15T16:43:58.567Z,33.93
2022-12-15T16:46:25.956Z,31.80
2022-12-15T16:48:53.526Z,30.30
2022-12-15T16:51:39.061Z,37.10
2022-12-15T16:54:06.760Z,29.00
2022-12-15T16:56:33.751Z,32.53
2022-12-15T16:59:31.400Z,37.93
2022-12-15T17:01:48.114Z,38.40
2022-12-15T17:04:16.674Z,37.90
2022-12-15T17:06:43.659Z,33.47
2022-12-15T17:09:21.910Z,38.93
2022-12-15T17:11:48.923Z,36.37
2022-12-15T17:14:16.137Z,30.37
2022-12-15T17:16:42.929Z,32.47
2022-12-15T17:19:09.702Z,38.07
2022-12-15T17:21:48.640Z,36.93
2022-12-15T17:24:19.905Z,42.33
2022-12-15T17:26:47.355Z,36.40
2022-12-15T17:29:21.629Z,36.17
2022-12-15T17:31:48.613Z,33.03
2022-12-15T17:34:28.193Z,28.67
2022-12-15T17:37:02.110Z,26.40
2022-12-15T17:39:30.221Z,22.67
2022-12-15T17:42:00.578Z,22.33
2022-12-15T17:44:36.270Z,36.03
2022-12-15T17:47:07.273Z,32.60
2022-12-15T17:49:37.196Z,38.87
2022-12-15T17:52:18.795Z,49.97
2022-12-15T17:54:45.730Z,34.83
2022-12-15T17:57:13.021Z,39.97
2022-12-15T17:59:39.741Z,35.03
2022-12-15T18:02:11.091Z,35.03
2022-12-15T18:04:37.884Z,32.23
2022-12-15T18:07:04.889Z,35.80
2022-12-15T18:09:31.839Z,34.23
2022-12-15T18:11:58.632Z,32.37
2022-12-15T18:14:27.554Z,35.87
2022-12-15T18:16:54.292Z,33.00
2022-12-15T18:19:21.044Z,33.47
2022-12-15T18:21:47.811Z,32.63
2022-12-15T18:24:19.288Z,40.67
2022-12-15T18:26:46.526Z,39.27
2022-12-15T18:29:17.969Z,34.03
2022-12-15T18:31:48.192Z,34.97
2022-12-15T18:34:21.115Z,33.43
2022-12-15T18:36:48.362Z,36.87
2022-12-15T18:39:23.350Z,30.77
2022-12-15T18:41:51.628Z,35.50
2022-12-15T18:44:30.892Z,33.03
2022-12-15T18:46:57.952Z,29.27
2022-12-15T18:49:25.019Z,30.30
2022-12-15T18:51:52.058Z,35.93
2022-12-15T18:54:25.351Z,34.43
2022-12-15T18:56:52.126Z,35.63
2022-12-15T18:59:21.702Z,35.83
2022-12-15T19:01:49.055Z,34.57
2022-12-15T19:04:16.197Z,37.10
2022-12-15T19:06:44.504Z,38.60
2022-12-15T19:09:18.631Z,30.67
2022-12-15T19:12:06.576Z,35.90
2022-12-15T19:14:42.678Z,28.00
2022-12-15T19:17:35.540Z,32.53
2022-12-15T19:20:24.163Z,34.10
2022-12-15T19:22:52.511Z,32.23
2022-12-15T19:25:26.496Z,37.37
2022-12-15T19:27:59.711Z,32.77
2022-12-15T19:30:37.049Z,32.80
2022-12-15T19:33:08.332Z,30.40
2022-12-15T19:35:37.204Z,35.83
2022-12-15T19:38:05.735Z,29.20
2022-12-15T19:40:36.449Z,38.00
2022-12-15T19:43:04.401Z,30.10
2022-12-15T19:45:33.527Z,25.93
2022-12-15T19:48:00.645Z,30.27
2022-12-15T19:50:36.301Z,28.20
2022-12-15T19:53:12.683Z,28.37
2022-12-15T19:55:40.635Z,29.80
2022-12-15T19:58:35.505Z,29.13
2022-12-15T20:01:08.546Z,32.27
2022-12-15T20:03:36.195Z,29.73
2022-12-15T20:06:09.471Z,27.73
2022-12-15T20:08:40.850Z,25.27
2022-12-15T20:11:31.015Z,27.00
2022-12-15T20:13:58.450Z,37.00
2022-12-15T20:16:25.467Z,32.77
2022-12-15T20:18:55.173Z,33.03
2022-12-15T20:21:28.734Z,28.70
2022-12-15T20:24:07.138Z,31.33
2022-12-15T20:26:37.448Z,32.50
2022-12-15T20:29:07.436Z,31.43
2022-12-15T20:31:34.263Z,28.80
2022-12-15T20:34:01.072Z,30.50
2022-12-15T20:36:30.911Z,39.43
2022-12-15T20:38:58.039Z,28.00
2022-12-15T20:41:28.242Z,33.47
2022-12-15T20:43:57.338Z,27.90
2022-12-15T20:46:33.062Z,22.83
2022-12-15T20:49:00.700Z,30.33
2022-12-15T20:51:31.079Z,24.53
2022-12-15T20:54:01.724Z,23.87
2022-12-15T20:56:28.794Z,20.00
2022-12-15T20:58:57.961Z,19.23
2022-12-15T21:01:33.262Z,20.60
2022-12-15T21:04:07.785Z,23.33
2022-12-15T21:06:34.469Z,21.97
2022-12-15T21:09:01.470Z,20.07
2022-12-15T21:11:32.438Z,24.77
2022-12-15T21:14:04.513Z,25.50
2022-12-15T21:16:32.999Z,23.00
2022-12-15T21:19:20.936Z,28.30
2022-12-15T21:21:52.972Z,25.43
2022-12-15T21:24:26.842Z,30.27
2022-12-15T21:26:54.814Z,28.10
2022-12-15T21:29:25.628Z,29.07
2022-12-15T21:31:52.413Z,26.70
2022-12-15T21:34:19.186Z,22.30
2022-12-15T21:36:52.005Z,31.03
2022-12-15T21:39:30.085Z,29.20
2022-12-15T21:42:18.834Z,31.77
2022-12-15T21:44:45.924Z,30.50
2022-12-15T21:47:52.130Z,33.00
2022-12-15T21:50:19.715Z,34.13
2022-12-15T21:52:47.875Z,30.23
2022-12-15T21:55:21.167Z,29.30
2022-12-15T21:57:48.112Z,37.27
2022-12-15T22:00:18.364Z,33.83
2022-12-15T22:02:47.131Z,38.57
2022-12-15T22:05:18.950Z,27.17
2022-12-15T22:07:46.204Z,26.30
2022-12-15T22:10:13.911Z,29.63
2022-12-15T22:12:59.108Z,27.77
2022-12-15T22:15:28.928Z,30.70
2022-12-15T22:17:56.008Z,29.67
2022-12-15T22:20:24.670Z,23.73
2022-12-15T22:22:51.761Z,22.77
2022-12-15T22:25:22.149Z,17.80
2022-12-15T22:27:49.776Z,18.43
2022-12-15T22:30:21.998Z,16.47
2022-12-15T22:32:49.606Z,21.60
2022-12-15T22:35:24.811Z,17.20
2022-12-15T22:37:55.997Z,19.33
2022-12-15T22:40:24.311Z,17.70
2022-12-15T22:42:57.947Z,11.53
2022-12-15T22:45:24.973Z,12.17
2022-12-15T22:47:55.030Z,18.43
2022-12-15T22:50:26.778Z,14.00
2022-12-15T22:52:55.033Z,12.60
2022-12-15T22:55:24.157Z,14.70
2022-12-15T22:58:02.965Z,20.90
2022-12-15T23:00:29.783Z,19.47
2022-12-15T23:05:30.657Z,21.37
2022-12-15T23:07:58.858Z,22.77
2022-12-15T23:10:44.542Z,23.00
2022-12-15T23:13:11.322Z,24.03
2022-12-15T23:15:56.844Z,21.83
2022-12-15T23:18:23.578Z,23.23
2022-12-15T23:20:51.598Z,24.57
2022-12-15T23:23:18.503Z,25.37
2022-12-15T23:25:46.704Z,23.70
2022-12-15T23:28:14.191Z,21.73
2022-12-15T23:30:40.945Z,22.40
2022-12-15T23:33:07.683Z,21.47
2022-12-15T23:35:34.470Z,19.53
2022-12-15T23:38:01.229Z,22.07
2022-12-15T23:40:27.947Z,19.63
2022-12-15T23:42:54.743Z,20.33
2022-12-15T23:45:22.183Z,19.37
2022-12-15T23:47:49.045Z,16.90
2022-12-15T23:50:18.945Z,14.50
2022-12-15T23:52:48.173Z,13.83
2022-12-15T23:55:18.091Z,15.17
2022-12-15T23:57:44.868Z,15.93
